createdAt,value
2022-09-26T00:01:36.462Z,10.50
2022-09-26T00:04:30.427Z,10.50
2022-09-26T00:06:59.883Z,10.50
2022-09-26T00:09:27.968Z,10.40
2022-09-26T00:11:55.289Z,10.40
2022-09-26T00:14:25.916Z,10.40
2022-09-26T00:16:52.966Z,10.40
2022-09-26T00:19:20.160Z,10.40
2022-09-26T00:21:46.958Z,10.40
2022-09-26T00:24:14.351Z,10.40
2022-09-26T00:26:41.193Z,10.40
2022-09-26T00:29:11.266Z,10.40
2022-09-26T00:31:44.537Z,10.40
2022-09-26T00:34:13.493Z,10.30
2022-09-26T00:36:40.244Z,10.30
2022-09-26T00:39:13.108Z,10.30
2022-09-26T00:41:39.955Z,10.30
2022-09-26T00:44:44.916Z,10.40
2022-09-26T00:47:27.364Z,10.30
2022-09-26T00:50:02.239Z,10.40
2022-09-26T00:52:37.032Z,10.40
2022-09-26T00:55:07.203Z,10.40
2022-09-26T00:57:39.048Z,10.40
2022-09-26T01:00:09.943Z,10.40
2022-09-26T01:02:37.132Z,10.40
2022-09-26T01:05:05.771Z,10.30
2022-09-26T01:07:34.264Z,10.30
2022-09-26T01:10:02.899Z,10.30
2022-09-26T01:12:29.962Z,10.30
2022-09-26T01:14:58.123Z,10.30
2022-09-26T01:17:26.337Z,10.30
2022-09-26T01:20:08.165Z,10.30
2022-09-26T01:22:37.850Z,10.30
2022-09-26T01:25:29.204Z,10.30
2022-09-26T01:28:14.580Z,10.20
2022-09-26T01:30:48.387Z,10.30
2022-09-26T01:33:28.500Z,10.30
2022-09-26T01:36:18.249Z,10.30
2022-09-26T01:39:03.152Z,10.30
2022-09-26T01:41:48.702Z,10.30
2022-09-26T01:44:50.783Z,10.30
2022-09-26T01:47:24.970Z,10.30
2022-09-26T01:50:03.492Z,10.30
2022-09-26T01:52:37.162Z,10.30
2022-09-26T01:55:21.606Z,10.20
2022-09-26T01:58:06.485Z,10.20
2022-09-26T02:00:35.887Z,10.20
2022-09-26T02:03:05.052Z,10.20
2022-09-26T02:06:18.077Z,10.20
2022-09-26T02:08:51.252Z,10.10
2022-09-26T02:11:19.060Z,10.10
2022-09-26T02:13:57.520Z,10.10
2022-09-26T02:16:37.500Z,10.10
2022-09-26T02:19:13.635Z,10.10
2022-09-26T02:21:42.799Z,10.00
2022-09-26T02:24:09.614Z,10.00
2022-09-26T02:26:36.319Z,10.00
2022-09-26T02:29:03.100Z,10.00
2022-09-26T02:31:35.540Z,10.00
2022-09-26T02:34:04.061Z,9.90
2022-09-26T02:36:34.469Z,9.90
2022-09-26T02:39:01.965Z,9.90
2022-09-26T02:41:39.273Z,9.90
2022-09-26T02:44:11.847Z,9.90
2022-09-26T02:46:49.291Z,9.90
2022-09-26T02:49:37.656Z,9.80
2022-09-26T02:52:19.686Z,9.90
2022-09-26T02:55:01.511Z,9.90
2022-09-26T02:58:02.119Z,9.90
2022-09-26T03:00:52.373Z,9.80
2022-09-26T03:03:25.268Z,9.80
2022-09-26T03:05:56.038Z,9.80
2022-09-26T03:08:28.837Z,9.80
2022-09-26T03:10:59.766Z,9.70
2022-09-26T03:13:28.010Z,9.70
2022-09-26T03:15:58.528Z,9.70
2022-09-26T03:18:32.036Z,9.70
2022-09-26T03:20:58.820Z,9.70
2022-09-26T03:23:26.926Z,9.70
2022-09-26T03:26:04.138Z,9.70
2022-09-26T03:28:35.342Z,9.80
2022-09-26T03:31:04.541Z,9.70
2022-09-26T03:33:31.567Z,9.70
2022-09-26T03:36:00.456Z,9.70
2022-09-26T03:38:27.601Z,9.70
2022-09-26T03:40:54.541Z,9.60
2022-09-26T03:43:24.307Z,9.60
2022-09-26T03:45:51.526Z,9.60
2022-09-26T03:48:18.360Z,9.60
2022-09-26T03:50:45.393Z,9.60
2022-09-26T03:53:12.114Z,9.60
2022-09-26T03:55:38.870Z,9.50
2022-09-26T03:58:05.546Z,9.40
2022-09-26T04:00:32.317Z,9.40
2022-09-26T04:03:03.075Z,9.30
2022-09-26T04:05:30.350Z,9.30
2022-09-26T04:07:58.889Z,9.30
2022-09-26T04:10:25.652Z,9.30
2022-09-26T04:12:52.352Z,9.20
2022-09-26T04:15:19.090Z,9.20
2022-09-26T04:17:46.374Z,9.20
2022-09-26T04:20:13.333Z,9.20
2022-09-26T04:22:40.892Z,9.20
2022-09-26T04:25:08.008Z,9.10
2022-09-26T04:27:34.704Z,9.10
2022-09-26T04:30:01.416Z,9.10
2022-09-26T04:32:28.180Z,9.20
2022-09-26T04:34:54.875Z,9.20
2022-09-26T04:37:21.563Z,9.20
2022-09-26T04:39:48.451Z,9.10
2022-09-26T04:42:15.306Z,9.10
2022-09-26T04:44:42.481Z,9.10
2022-09-26T04:47:09.265Z,9.10
2022-09-26T04:49:36.232Z,9.10
2022-09-26T04:52:02.928Z,9.10
2022-09-26T04:54:29.605Z,9.10
2022-09-26T04:56:56.349Z,9.10
2022-09-26T04:59:23.024Z,9.10
2022-09-26T05:01:49.798Z,9.00
2022-09-26T05:04:16.539Z,9.00
2022-09-26T05:06:43.287Z,9.00
2022-09-26T05:09:10.046Z,9.00
2022-09-26T05:11:36.818Z,8.90
2022-09-26T05:14:04.033Z,8.90
2022-09-26T05:16:30.963Z,8.90
2022-09-26T05:18:57.864Z,9.00
2022-09-26T05:21:24.555Z,8.90
2022-09-26T05:24:09.696Z,9.00
2022-09-26T05:26:51.555Z,8.90
2022-09-26T05:29:19.973Z,8.90
2022-09-26T05:31:46.842Z,8.90
2022-09-26T05:34:19.212Z,9.00
2022-09-26T05:36:46.985Z,9.00
2022-09-26T05:39:32.180Z,9.00
2022-09-26T05:41:59.582Z,8.90
2022-09-26T05:44:27.363Z,8.90
2022-09-26T05:46:54.382Z,8.90
2022-09-26T05:49:21.138Z,8.90
2022-09-26T05:51:47.805Z,9.00
2022-09-26T05:54:14.905Z,9.00
2022-09-26T05:56:41.604Z,9.10
2022-09-26T05:59:09.066Z,9.10
2022-09-26T06:01:36.014Z,9.10
2022-09-26T06:04:03.160Z,9.20
2022-09-26T06:06:30.129Z,9.20
2022-09-26T06:08:57.220Z,9.20
2022-09-26T06:11:27.458Z,9.10
2022-09-26T06:13:55.751Z,9.20
2022-09-26T06:16:22.607Z,9.30
2022-09-26T06:18:51.344Z,9.30
2022-09-26T06:21:19.575Z,9.40
2022-09-26T06:23:46.380Z,9.40
2022-09-26T06:26:20.720Z,9.40
2022-09-26T06:28:49.945Z,9.50
2022-09-26T06:31:18.650Z,9.50
2022-09-26T06:33:52.726Z,9.50
2022-09-26T06:36:19.942Z,9.50
2022-09-26T06:38:46.649Z,9.60
2022-09-26T06:41:16.474Z,9.60
2022-09-26T06:43:45.213Z,9.60
2022-09-26T06:46:13.083Z,9.60
2022-09-26T06:48:39.776Z,9.70
2022-09-26T06:51:06.800Z,9.80
2022-09-26T06:53:35.061Z,9.80
2022-09-26T06:56:02.321Z,9.90
2022-09-26T06:58:29.168Z,9.90
2022-09-26T07:00:56.764Z,10.00
2022-09-26T07:03:25.402Z,10.10
2022-09-26T07:05:55.893Z,10.20
2022-09-26T07:08:32.565Z,10.30
2022-09-26T07:11:31.242Z,10.40
2022-09-26T07:14:00.116Z,10.40
2022-09-26T07:16:27.129Z,10.40
2022-09-26T07:18:54.934Z,10.40
2022-09-26T07:21:21.811Z,10.50
2022-09-26T07:23:49.022Z,10.60
2022-09-26T07:26:15.784Z,10.80
2022-09-26T07:28:42.593Z,10.80
2022-09-26T07:31:09.886Z,10.80
2022-09-26T07:33:36.689Z,10.80
2022-09-26T07:36:05.747Z,10.90
2022-09-26T07:38:32.890Z,10.80
2022-09-26T07:41:00.913Z,10.80
2022-09-26T07:43:53.608Z,10.80
2022-09-26T07:46:33.133Z,10.80
2022-09-26T07:49:18.405Z,10.80
2022-09-26T07:51:46.118Z,10.70
2022-09-26T07:54:12.965Z,10.70
2022-09-26T07:56:40.328Z,10.80
2022-09-26T07:59:07.128Z,10.90
2022-09-26T08:01:37.602Z,11.00
2022-09-26T08:04:06.346Z,11.00
2022-09-26T08:06:35.190Z,10.90
2022-09-26T08:09:01.933Z,10.90
2022-09-26T08:11:28.841Z,11.10
2022-09-26T08:13:55.742Z,11.10
2022-09-26T08:16:25.867Z,11.20
2022-09-26T08:18:54.138Z,11.20
2022-09-26T08:21:22.097Z,11.10
2022-09-26T08:23:49.012Z,11.20
2022-09-26T08:26:16.264Z,11.30
2022-09-26T08:28:43.081Z,11.30
2022-09-26T08:31:10.167Z,11.30
2022-09-26T08:33:38.827Z,11.40
2022-09-26T08:36:13.976Z,11.60
2022-09-26T08:38:40.942Z,11.70
2022-09-26T08:41:36.976Z,11.80
2022-09-26T08:44:33.528Z,11.90
2022-09-26T08:47:23.537Z,12.00
2022-09-26T08:50:07.836Z,11.90
2022-09-26T08:52:43.377Z,11.70
2022-09-26T08:55:24.222Z,11.60
2022-09-26T08:57:56.464Z,11.60
2022-09-26T09:00:25.812Z,11.80
2022-09-26T09:03:10.686Z,12.00
2022-09-26T09:05:45.787Z,12.10
2022-09-26T09:08:28.915Z,12.50
2022-09-26T09:11:33.274Z,12.70
2022-09-26T09:14:08.808Z,12.90
2022-09-26T09:16:58.459Z,13.20
2022-09-26T09:19:25.176Z,13.30
2022-09-26T09:22:17.896Z,13.90
2022-09-26T09:25:03.406Z,14.80
2022-09-26T09:28:02.619Z,15.10
2022-09-26T09:30:58.104Z,14.40
2022-09-26T09:33:41.984Z,14.20
2022-09-26T09:36:14.980Z,14.10
2022-09-26T09:38:45.888Z,14.40
2022-09-26T09:41:22.826Z,14.40
2022-09-26T09:43:59.991Z,14.50
2022-09-26T09:46:29.451Z,14.50
2022-09-26T09:49:08.537Z,15.00
2022-09-26T09:52:02.696Z,14.70
2022-09-26T09:54:56.877Z,15.20
2022-09-26T09:57:54.195Z,15.90
2022-09-26T10:00:24.019Z,16.90
2022-09-26T10:03:14.778Z,16.60
2022-09-26T10:05:44.167Z,16.80
2022-09-26T10:08:16.847Z,16.20
2022-09-26T10:11:19.443Z,16.10
2022-09-26T10:13:50.173Z,15.50
2022-09-26T10:16:16.944Z,16.10
2022-09-26T10:19:06.050Z,15.80
2022-09-26T10:21:39.570Z,16.50
2022-09-26T10:24:21.339Z,16.30
2022-09-26T10:26:49.917Z,16.00
2022-09-26T10:29:34.469Z,15.80
2022-09-26T10:32:02.304Z,15.20
2022-09-26T10:34:38.902Z,15.40
2022-09-26T10:37:25.454Z,15.60
2022-09-26T10:40:12.419Z,15.60
2022-09-26T10:42:39.376Z,16.40
2022-09-26T10:45:15.843Z,17.70
2022-09-26T10:47:46.150Z,18.40
2022-09-26T10:50:18.088Z,18.70
2022-09-26T10:53:17.345Z,18.20
2022-09-26T10:55:49.588Z,17.20
2022-09-26T10:58:24.019Z,17.00
2022-09-26T11:00:51.650Z,16.40
2022-09-26T11:03:24.256Z,16.10
2022-09-26T11:05:57.281Z,15.70
2022-09-26T11:08:34.860Z,15.70
2022-09-26T11:11:04.253Z,16.20
2022-09-26T11:13:40.146Z,16.70
2022-09-26T11:16:06.998Z,17.30
2022-09-26T11:19:05.960Z,16.50
2022-09-26T11:21:38.662Z,16.60
2022-09-26T11:24:27.841Z,17.50
2022-09-26T11:27:28.243Z,18.00
2022-09-26T11:30:14.409Z,18.50
2022-09-26T11:32:44.867Z,18.20
2022-09-26T11:35:16.041Z,19.20
2022-09-26T11:38:05.195Z,18.70
2022-09-26T11:40:50.877Z,19.00
2022-09-26T11:43:44.940Z,18.50
2022-09-26T11:46:33.083Z,18.40
2022-09-26T11:49:27.596Z,18.50
2022-09-26T11:52:19.144Z,19.00
2022-09-26T11:54:57.375Z,19.50
2022-09-26T11:57:40.858Z,20.30
2022-09-26T12:00:24.660Z,20.00
2022-09-26T12:03:14.932Z,19.70
2022-09-26T12:05:59.468Z,19.20
2022-09-26T12:08:47.561Z,19.30
2022-09-26T12:11:22.089Z,19.30
2022-09-26T12:14:09.864Z,19.30
2022-09-26T12:16:58.677Z,19.10
2022-09-26T12:19:48.522Z,19.50
2022-09-26T12:22:31.841Z,19.70
2022-09-26T12:25:19.295Z,19.50
2022-09-26T12:28:16.311Z,18.90
2022-09-26T12:30:53.391Z,19.20
2022-09-26T12:33:34.213Z,19.30
2022-09-26T12:36:22.043Z,18.40
2022-09-26T12:39:00.080Z,17.60
2022-09-26T12:42:01.140Z,17.00
2022-09-26T12:44:46.704Z,16.90
2022-09-26T12:47:37.021Z,16.60
2022-09-26T12:50:08.005Z,16.30
2022-09-26T12:52:44.216Z,16.30
2022-09-26T12:55:24.265Z,16.30
2022-09-26T12:58:19.638Z,16.20
2022-09-26T13:01:14.047Z,16.20
2022-09-26T13:03:58.579Z,16.50
2022-09-26T13:07:14.395Z,16.50
2022-09-26T13:09:42.702Z,16.20
2022-09-26T13:12:31.009Z,16.50
2022-09-26T13:15:16.242Z,16.20
2022-09-26T13:17:48.103Z,17.30
2022-09-26T13:20:38.045Z,17.30
2022-09-26T13:23:20.667Z,17.80
2022-09-26T13:25:50.274Z,18.00
2022-09-26T13:28:19.653Z,18.60
2022-09-26T13:30:55.822Z,18.70
2022-09-26T13:33:56.499Z,18.70
2022-09-26T13:36:24.122Z,19.00
2022-09-26T13:39:12.813Z,18.80
2022-09-26T13:41:43.864Z,18.70
2022-09-26T13:44:49.031Z,18.80
2022-09-26T13:47:43.303Z,19.20
2022-09-26T13:50:27.356Z,18.00
2022-09-26T13:53:21.344Z,17.20
2022-09-26T13:56:29.704Z,16.50
2022-09-26T13:59:27.340Z,16.10
2022-09-26T14:02:24.686Z,16.20
2022-09-26T14:04:54.100Z,16.10
2022-09-26T14:08:02.189Z,15.40
2022-09-26T14:10:38.184Z,15.40
2022-09-26T14:13:19.139Z,15.30
2022-09-26T14:15:48.831Z,15.40
2022-09-26T14:18:51.097Z,15.30
2022-09-26T14:21:41.365Z,15.40
2022-09-26T14:24:29.459Z,15.00
2022-09-26T14:27:11.380Z,15.00
2022-09-26T14:29:46.611Z,15.10
2022-09-26T14:32:26.551Z,15.20
2022-09-26T14:34:59.196Z,15.10
2022-09-26T14:37:43.534Z,14.90
2022-09-26T14:40:10.241Z,14.50
2022-09-26T14:42:57.496Z,14.20
2022-09-26T14:45:32.595Z,13.90
2022-09-26T14:48:08.369Z,13.90
2022-09-26T14:51:03.453Z,14.00
2022-09-26T14:53:48.166Z,13.90
2022-09-26T14:56:41.706Z,14.10
2022-09-26T14:59:35.916Z,14.30
2022-09-26T15:02:39.080Z,14.60
2022-09-26T15:05:18.329Z,14.90
2022-09-26T15:07:51.261Z,14.90
2022-09-26T15:10:25.152Z,14.70
2022-09-26T15:13:20.615Z,14.50
2022-09-26T15:16:11.041Z,14.30
2022-09-26T15:18:40.867Z,14.00
2022-09-26T15:21:27.030Z,14.10
2022-09-26T15:23:56.722Z,14.00
2022-09-26T15:26:31.031Z,14.20
2022-09-26T15:28:58.336Z,14.10
2022-09-26T15:31:37.319Z,14.00
2022-09-26T15:34:11.060Z,13.60
2022-09-26T15:36:39.645Z,13.40
2022-09-26T15:39:33.967Z,13.20
2022-09-26T15:42:37.042Z,13.30
2022-09-26T15:45:33.618Z,13.30
2022-09-26T15:48:02.080Z,13.10
2022-09-26T15:50:42.171Z,13.10
2022-09-26T15:53:15.152Z,13.00
2022-09-26T15:55:54.262Z,12.90
2022-09-26T15:58:50.295Z,12.80
2022-09-26T16:01:20.081Z,12.80
2022-09-26T16:03:57.293Z,12.80
2022-09-26T16:06:30.988Z,12.70
2022-09-26T16:09:08.554Z,12.60
2022-09-26T16:11:48.497Z,12.70
2022-09-26T16:14:46.415Z,12.60
2022-09-26T16:17:36.128Z,12.70
2022-09-26T16:20:26.266Z,12.50
2022-09-26T16:23:04.150Z,12.40
2022-09-26T16:25:47.890Z,12.50
2022-09-26T16:28:35.763Z,12.40
2022-09-26T16:31:27.727Z,12.40
2022-09-26T16:33:57.709Z,12.30
2022-09-26T16:36:30.600Z,12.30
2022-09-26T16:39:08.704Z,12.30
2022-09-26T16:44:41.130Z,12.20
2022-09-26T16:47:48.430Z,12.20
2022-09-26T16:50:18.065Z,12.20
2022-09-26T16:52:45.948Z,12.10
2022-09-26T16:55:13.084Z,12.10
2022-09-26T16:57:56.506Z,12.20
2022-09-26T17:00:47.757Z,12.10
2022-09-26T17:03:32.180Z,11.90
2022-09-26T17:06:00.222Z,11.90
2022-09-26T17:08:28.058Z,11.80
2022-09-26T17:10:58.424Z,11.80
2022-09-26T17:13:27.811Z,11.80
2022-09-26T17:15:56.273Z,11.80
2022-09-26T17:18:29.739Z,11.80
2022-09-26T17:20:57.013Z,11.80
2022-09-26T17:23:41.003Z,11.70
2022-09-26T17:26:12.233Z,11.60
2022-09-26T17:28:45.572Z,11.60
2022-09-26T17:31:19.884Z,11.70
2022-09-26T17:33:49.699Z,11.60
2022-09-26T17:36:24.297Z,11.50
2022-09-26T17:38:51.071Z,11.50
2022-09-26T17:41:17.907Z,11.50
2022-09-26T17:43:45.151Z,11.60
2022-09-26T17:46:15.436Z,11.60
2022-09-26T17:48:43.433Z,11.60
2022-09-26T17:51:13.902Z,11.50
2022-09-26T17:53:50.449Z,11.50
2022-09-26T17:56:21.094Z,11.40
2022-09-26T17:58:49.366Z,11.40
2022-09-26T18:01:26.255Z,11.20
2022-09-26T18:03:56.977Z,11.20
2022-09-26T18:06:27.781Z,11.20
2022-09-26T18:08:58.290Z,11.20
2022-09-26T18:11:25.121Z,11.20
2022-09-26T18:13:54.613Z,11.10
2022-09-26T18:16:22.821Z,11.10
2022-09-26T18:18:50.428Z,11.10
2022-09-26T18:21:19.040Z,11.10
2022-09-26T18:24:09.251Z,11.00
2022-09-26T18:26:46.997Z,11.00
2022-09-26T18:29:17.796Z,10.90
2022-09-26T18:31:45.824Z,11.00
2022-09-26T18:34:18.622Z,10.90
2022-09-26T18:36:45.547Z,10.90
2022-09-26T18:39:12.867Z,10.90
2022-09-26T18:41:42.019Z,10.90
2022-09-26T18:44:20.255Z,10.90
2022-09-26T18:46:48.998Z,10.80
2022-09-26T18:49:16.779Z,10.80
2022-09-26T18:51:44.498Z,10.80
2022-09-26T18:54:17.254Z,10.70
2022-09-26T18:57:02.987Z,10.70
2022-09-26T18:59:31.039Z,10.80
2022-09-26T19:01:59.695Z,10.70
2022-09-26T19:04:27.051Z,10.70
2022-09-26T19:06:59.559Z,10.70
2022-09-26T19:09:30.697Z,10.70
2022-09-26T19:11:57.501Z,10.60
2022-09-26T19:14:26.894Z,10.60
2022-09-26T19:16:54.878Z,10.70
2022-09-26T19:19:22.387Z,10.70
2022-09-26T19:21:53.219Z,10.70
2022-09-26T19:24:37.344Z,10.70
2022-09-26T19:27:06.890Z,10.60
2022-09-26T19:30:00.798Z,10.60
2022-09-26T19:32:33.310Z,10.60
2022-09-26T19:35:20.026Z,10.70
2022-09-26T19:37:46.899Z,10.60
2022-09-26T19:40:15.548Z,10.60
2022-09-26T19:42:44.002Z,10.60
2022-09-26T19:45:11.864Z,10.60
2022-09-26T19:47:41.668Z,10.50
2022-09-26T19:50:18.633Z,10.50
2022-09-26T19:52:46.103Z,10.50
2022-09-26T19:55:19.140Z,10.50
2022-09-26T19:57:46.138Z,10.50
2022-09-26T20:00:13.602Z,10.50
2022-09-26T20:02:40.846Z,10.50
2022-09-26T20:05:16.874Z,10.50
2022-09-26T20:07:44.581Z,10.50
2022-09-26T20:10:20.306Z,10.40
2022-09-26T20:12:48.554Z,10.40
2022-09-26T20:15:18.029Z,10.40
2022-09-26T20:17:45.759Z,10.30
2022-09-26T20:20:34.939Z,10.30
2022-09-26T20:23:02.508Z,10.30
2022-09-26T20:25:31.736Z,10.20
2022-09-26T20:27:59.456Z,10.20
2022-09-26T20:30:45.325Z,10.20
2022-09-26T20:33:13.222Z,10.20
2022-09-26T20:35:44.464Z,10.20
2022-09-26T20:38:26.197Z,10.20
2022-09-26T20:41:00.678Z,10.20
2022-09-26T20:43:33.429Z,10.20
2022-09-26T20:46:04.385Z,10.20
2022-09-26T20:48:34.470Z,10.10
2022-09-26T20:51:02.752Z,10.10
2022-09-26T20:53:29.483Z,10.20
2022-09-26T20:55:56.275Z,10.20
2022-09-26T20:58:23.352Z,10.20
2022-09-26T21:00:53.179Z,10.20
2022-09-26T21:03:25.125Z,10.30
2022-09-26T21:05:52.326Z,10.30
2022-09-26T21:08:25.357Z,10.30
2022-09-26T21:10:52.217Z,10.30
2022-09-26T21:13:19.032Z,10.20
2022-09-26T21:15:45.934Z,10.30
2022-09-26T21:18:26.275Z,10.30
2022-09-26T21:20:53.953Z,10.30
2022-09-26T21:23:21.355Z,10.40
2022-09-26T21:25:48.710Z,10.40
2022-09-26T21:28:23.349Z,10.40
2022-09-26T21:30:50.437Z,10.40
2022-09-26T21:33:17.732Z,10.40
2022-09-26T21:35:44.464Z,10.30
2022-09-26T21:38:11.286Z,10.30
2022-09-26T21:40:39.911Z,10.30
2022-09-26T21:43:15.696Z,10.30
2022-09-26T21:45:44.394Z,10.30
2022-09-26T21:48:15.050Z,10.20
2022-09-26T21:50:51.962Z,10.30
2022-09-26T21:53:28.256Z,10.20
2022-09-26T21:56:03.670Z,10.30
2022-09-26T21:58:38.048Z,10.20
2022-09-26T22:01:05.008Z,10.20
2022-09-26T22:03:32.189Z,10.10
2022-09-26T22:06:00.567Z,10.20
2022-09-26T22:08:31.256Z,10.10
2022-09-26T22:10:58.071Z,10.10
2022-09-26T22:13:24.876Z,10.10
2022-09-26T22:15:51.620Z,10.10
2022-09-26T22:18:18.430Z,10.00
2022-09-26T22:20:45.250Z,10.00
2022-09-26T22:23:12.097Z,10.00
2022-09-26T22:25:42.788Z,10.00
2022-09-26T22:28:09.824Z,10.00
2022-09-26T22:30:39.606Z,10.10
2022-09-26T22:33:06.435Z,10.00
2022-09-26T22:35:33.220Z,10.00
2022-09-26T22:37:59.959Z,10.00
2022-09-26T22:40:26.832Z,10.10
2022-09-26T22:42:53.812Z,10.00
2022-09-26T22:45:20.580Z,10.00
2022-09-26T22:47:47.350Z,10.10
2022-09-26T22:50:14.789Z,10.00
2022-09-26T22:52:41.583Z,10.00
2022-09-26T22:55:08.686Z,10.00
2022-09-26T22:57:35.757Z,10.10
2022-09-26T23:00:03.920Z,10.00
2022-09-26T23:02:30.715Z,10.00
2022-09-26T23:04:57.578Z,10.00
2022-09-26T23:07:24.341Z,10.00
2022-09-26T23:09:51.204Z,10.00
2022-09-26T23:12:18.989Z,10.00
2022-09-26T23:14:45.773Z,10.00
2022-09-26T23:17:12.642Z,10.00
2022-09-26T23:19:40.100Z,10.00
2022-09-26T23:22:06.891Z,10.00
2022-09-26T23:24:33.676Z,10.00
2022-09-26T23:27:00.578Z,9.90
2022-09-26T23:29:27.376Z,9.90
2022-09-26T23:31:54.837Z,9.90
2022-09-26T23:34:21.641Z,9.90
2022-09-26T23:36:48.531Z,9.90
2022-09-26T23:39:15.605Z,9.90
2022-09-26T23:41:42.452Z,9.90
2022-09-26T23:44:09.747Z,10.00
2022-09-26T23:46:36.766Z,9.90
2022-09-26T23:49:03.558Z,9.90
2022-09-26T23:51:30.347Z,9.90
2022-09-26T23:53:57.180Z,9.80
2022-09-26T23:56:24.318Z,9.80
2022-09-26T23:58:51.132Z,9.90
